Time;durP1;ratioP1;P1;durP2;ratioP2;P2;SDS_P1;SDS_P2;PMS_P1;PMS_P2;Temp;Humidity;BMP_temperature;BMP_pressure;BME280_temperature;BME280_humidity;BME280_pressure;Samples;Min_cycle;Max_cycle;Signal;HPM_P1;HPM_P2
2023/09/05 00:00:26;;;;;;;4.93;2.83;;;;;;;19.31;50.96;99946.44;4481848;32;34080;-87
2023/09/05 00:02:54;;;;;;;6.55;2.70;;;;;;;19.28;51.21;99952.59;4481496;32;33956;-92
2023/09/05 00:05:23;;;;;;;6.28;3.03;;;;;;;19.51;49.74;99947.09;4481903;32;34321;-84
2023/09/05 00:07:50;;;;;;;6.40;2.97;;;;;;;19.41;49.36;99943.69;4482303;31;34930;-85
2023/09/05 00:10:18;;;;;;;6.37;3.10;;;;;;;19.15;50.41;99948.34;4480945;32;33517;-91
2023/09/05 00:12:46;;;;;;;4.30;2.45;;;;;;;19.11;50.76;99949.25;4482534;32;33997;-83
2023/09/05 00:15:14;;;;;;;5.62;3.00;;;;;;;19.17;50.27;99939.56;4485649;31;34670;-92
2023/09/05 00:17:42;;;;;;;5.57;3.08;;;;;;;19.35;50.29;99946.38;4473273;32;33462;-93
2023/09/05 00:20:15;;;;;;;5.20;2.95;;;;;;;19.31;50.64;99942.03;4482698;31;34632;-92
2023/09/05 00:22:43;;;;;;;5.25;3.17;;;;;;;19.18;50.31;99932.53;4491319;31;33288;-89
2023/09/05 00:25:11;;;;;;;7.50;3.22;;;;;;;19.24;50.34;99927.22;4492178;31;33831;-90
2023/09/05 00:27:40;;;;;;;7.97;2.92;;;;;;;19.30;50.78;99923.66;4498022;31;35131;-91
2023/09/05 00:30:08;;;;;;;6.12;3.15;;;;;;;19.25;50.85;99923.72;4487273;31;34127;-84
2023/09/05 00:32:37;;;;;;;6.50;3.00;;;;;;;19.18;51.36;99922.03;4473317;31;32692;-92
2023/09/05 00:35:05;;;;;;;5.20;2.90;;;;;;;19.09;52.60;99920.38;4478778;31;34039;-86
2023/09/05 00:37:33;;;;;;;7.50;3.28;;;;;;;18.89;52.27;99917.91;4493544;31;34133;-83
2023/09/05 00:40:00;;;;;;;7.30;3.15;;;;;;;18.83;52.45;99920.62;4488135;31;34623;-89
2023/09/05 00:42:28;;;;;;;5.03;3.00;;;;;;;19.08;52.76;99909.84;4482977;32;32901;-83
2023/09/05 00:44:56;;;;;;;5.05;3.00;;;;;;;19.03;52.63;99920.41;4483301;32;33839;-88
2023/09/05 00:47:27;;;;;;;4.87;2.80;;;;;;;18.81;52.67;99913.62;4487285;31;35148;-83
2023/09/05 00:49:54;;;;;;;4.95;3.08;;;;;;;18.80;53.12;99904.88;4486478;31;33570;-83
2023/09/05 00:52:25;;;;;;;7.50;3.50;;;;;;;18.82;52.30;99910.97;4494096;31;33591;-83
2023/09/05 00:54:54;;;;;;;5.10;3.12;;;;;;;18.68;52.92;99895.31;4488297;31;34812;-91
2023/09/05 00:57:24;;;;;;;5.35;3.00;;;;;;;18.98;51.76;99901.22;4486207;31;33493;-82
2023/09/05 00:59:51;;;;;;;6.35;3.17;;;;;;;18.93;51.59;99901.22;4490893;31;33964;-83
2023/09/05 01:02:19;;;;;;;5.15;3.00;;;;;;;18.89;52.20;99910.03;4487461;31;34307;-89
2023/09/05 01:04:47;;;;;;;5.18;2.83;;;;;;;18.75;52.62;99896.13;4494839;31;33697;-92
2023/09/05 01:07:37;;;;;;;5.97;3.37;;;;;;;18.90;51.95;99895.13;4484081;32;34946;-87
2023/09/05 01:10:15;;;;;;;5.72;3.30;;;;;;;18.85;52.64;99905.69;4484700;31;34864;-93
2023/09/05 01:12:43;;;;;;;4.75;3.03;;;;;;;18.93;51.91;99889.84;4485581;31;34320;-91
2023/09/05 01:15:10;;;;;;;5.97;3.30;;;;;;;18.85;52.54;99895.19;4488049;31;33819;-82
2023/09/05 01:17:38;;;;;;;9.45;3.45;;;;;;;19.11;52.47;99891.44;4490793;31;34352;-82
2023/09/05 01:20:06;;;;;;;5.20;3.08;;;;;;;18.71;53.61;99886.53;4492320;31;33767;-83
2023/09/05 01:22:50;;;;;;;5.00;3.30;;;;;;;18.84;52.68;99887.31;4484169;31;34007;-84
2023/09/05 01:25:19;;;;;;;5.57;3.37;;;;;;;18.80;52.91;99889.09;4486369;31;34003;-91
2023/09/05 01:27:48;;;;;;;6.03;3.65;;;;;;;18.69;52.93;99891.78;4489125;31;34792;-92
2023/09/05 01:30:16;;;;;;;5.97;3.05;;;;;;;18.85;52.71;99899.56;4487482;31;34946;-82
2023/09/05 01:32:46;;;;;;;5.28;3.12;;;;;;;18.94;52.61;99900.38;4487025;31;33461;-93
2023/09/05 01:35:13;;;;;;;7.65;3.42;;;;;;;18.74;53.14;99894.41;4490935;31;33371;-91
2023/09/05 01:37:40;;;;;;;8.52;3.70;;;;;;;18.67;53.19;99901.44;4499417;31;35118;-83
2023/09/05 01:40:09;;;;;;;8.05;3.53;;;;;;;18.77;52.88;99902.25;4497135;31;33283;-82
2023/09/05 01:42:38;;;;;;;5.65;3.37;;;;;;;18.69;52.85;99896.19;4498490;31;33503;-82
2023/09/05 01:45:06;;;;;;;6.87;3.67;;;;;;;18.48;53.08;99895.44;4488025;31;33241;-83
2023/09/05 01:47:33;;;;;;;8.63;3.47;;;;;;;18.59;52.69;99895.37;4482740;31;33331;-90
2023/09/05 01:50:01;;;;;;;5.72;3.33;;;;;;;18.85;52.18;99897.81;4494413;31;33933;-82
2023/09/05 01:52:28;;;;;;;6.62;3.40;;;;;;;18.97;52.37;99894.19;4482409;31;33242;-82
2023/09/05 01:54:56;;;;;;;7.03;3.10;;;;;;;19.04;52.09;99890.62;4482975;31;34657;-86
2023/09/05 01:57:23;;;;;;;5.95;3.22;;;;;;;18.64;53.04;99888.34;4487950;31;33798;-84
2023/09/05 01:59:51;;;;;;;6.28;3.60;;;;;;;18.56;53.00;99882.28;4499330;31;33546;-91
2023/09/05 02:02:19;;;;;;;6.35;3.60;;;;;;;18.84;52.51;99882.94;4498714;31;33070;-91
2023/09/05 02:04:46;;;;;;;5.87;3.12;;;;;;;18.79;52.45;99878.59;4490469;31;34040;-90
2023/09/05 02:07:14;;;;;;;5.55;3.35;;;;;;;18.91;52.57;99871.50;4485059;31;34084;-88
2023/09/05 02:09:41;;;;;;;4.78;3.08;;;;;;;19.00;51.59;99867.03;4498221;31;33689;-91
2023/09/05 02:12:09;;;;;;;5.45;3.28;;;;;;;18.78;52.20;99875.09;4485605;31;33394;-90
2023/09/05 02:14:37;;;;;;;7.10;3.40;;;;;;;18.95;52.29;99873.19;4490920;31;32639;-89
2023/09/05 02:17:05;;;;;;;6.00;3.25;;;;;;;19.01;51.93;99876.63;4499276;31;34132;-92
2023/09/05 02:19:33;;;;;;;8.10;4.47;;;;;;;18.51;53.09;99875.31;4490636;31;34922;-93
2023/09/05 02:22:02;;;;;;;7.53;3.97;;;;;;;18.88;52.05;99871.50;4483309;32;34322;-89
2023/09/05 02:24:30;;;;;;;6.35;3.62;;;;;;;18.63;52.70;99881.31;4494111;31;33581;-91
2023/09/05 02:26:57;;;;;;;8.07;3.28;;;;;;;18.65;52.51;99889.22;4495412;31;33621;-81
2023/09/05 02:29:27;;;;;;;5.10;2.85;;;;;;;18.43;52.77;99878.87;4494246;31;34092;-84
2023/09/05 02:31:55;;;;;;;5.75;3.28;;;;;;;18.47;53.51;99877.97;4468447;32;34288;-83
2023/09/05 02:34:22;;;;;;;6.78;3.60;;;;;;;18.22;53.45;99881.66;4485588;31;34571;-83
2023/09/05 02:36:54;;;;;;;7.28;3.58;;;;;;;18.33;53.94;99890.31;4490817;31;33895;-82
2023/09/05 02:39:22;;;;;;;6.00;3.22;;;;;;;18.36;53.48;99889.44;4482419;32;34509;-92
2023/09/05 02:41:49;;;;;;;6.72;3.78;;;;;;;18.56;53.03;99884.03;4482050;32;33495;-82
2023/09/05 02:44:17;;;;;;;5.03;3.25;;;;;;;18.53;53.53;99891.94;4482787;31;35487;-82
2023/09/05 02:46:45;;;;;;;4.47;2.58;;;;;;;18.62;53.17;99889.22;4477804;31;33126;-87
2023/09/05 02:49:12;;;;;;;4.60;3.22;;;;;;;18.66;52.90;99883.06;4482226;31;33691;-83
2023/09/05 02:51:40;;;;;;;5.75;3.30;;;;;;;18.75;52.70;99895.28;4486946;31;33362;-89
2023/09/05 02:54:07;;;;;;;5.30;3.45;;;;;;;18.53;53.28;99894.56;4483981;31;33307;-95
2023/09/05 02:56:35;;;;;;;5.70;3.40;;;;;;;18.74;52.81;99897.03;4491351;31;33938;-93
2023/09/05 02:59:03;;;;;;;7.53;3.42;;;;;;;18.56;52.94;99894.53;4491072;31;35022;-92
2023/09/05 03:01:30;;;;;;;5.97;3.35;;;;;;;18.74;52.52;99904.91;4487126;31;33746;-95
2023/09/05 03:03:57;;;;;;;6.62;3.60;;;;;;;18.68;52.46;99899.69;4482143;31;33780;-95
2023/09/05 03:06:25;;;;;;;5.55;3.15;;;;;;;18.91;52.42;99904.78;4482939;31;34240;-93
2023/09/05 03:08:54;;;;;;;7.60;3.67;;;;;;;18.81;53.28;99903.97;4486585;31;33570;-93
2023/09/05 03:11:24;;;;;;;6.07;3.22;;;;;;;18.88;53.51;99910.91;4497977;31;33554;-95
2023/09/05 03:13:51;;;;;;;5.22;2.83;;;;;;;18.85;53.75;99910.94;4497447;31;33489;-93
2023/09/05 03:16:21;;;;;;;7.05;3.33;;;;;;;19.20;51.76;99905.34;4482421;31;35758;-84
2023/09/05 03:18:50;;;;;;;6.55;3.90;;;;;;;18.67;53.31;99900.56;4485976;31;35176;-93
2023/09/05 03:21:18;;;;;;;6.15;3.60;;;;;;;18.65;53.16;99899.72;4496953;31;33532;-82
2023/09/05 03:23:46;;;;;;;6.53;3.65;;;;;;;18.77;53.18;99906.66;4496396;31;33912;-91
2023/09/05 03:26:13;;;;;;;6.68;3.20;;;;;;;18.73;53.88;99907.56;4497946;31;34128;-91
2023/09/05 03:28:43;;;;;;;5.93;3.20;;;;;;;18.63;53.87;99912.84;4490917;31;33612;-82
2023/09/05 03:31:10;;;;;;;6.25;3.60;;;;;;;18.53;54.15;99915.59;4493206;31;34202;-92
2023/09/05 03:33:38;;;;;;;6.05;3.37;;;;;;;18.63;53.02;99917.22;4485750;31;33596;-90
2023/09/05 03:36:07;;;;;;;5.05;2.62;;;;;;;18.50;53.56;99923.47;4495535;31;34977;-93
2023/09/05 03:38:35;;;;;;;6.95;3.05;;;;;;;18.61;53.43;99924.25;4494972;31;34482;-92
2023/09/05 03:41:02;;;;;;;6.55;3.40;;;;;;;18.73;52.97;99924.19;4487144;31;34221;-91
2023/09/05 03:43:30;;;;;;;7.20;3.70;;;;;;;18.55;53.56;99926.94;4493206;31;33225;-83
2023/09/05 03:45:59;;;;;;;5.40;3.35;;;;;;;18.74;53.23;99931.19;4493307;31;35056;-92
2023/09/05 03:48:26;;;;;;;6.65;3.40;;;;;;;18.70;53.33;99926.81;4498295;31;34834;-84
2023/09/05 03:50:54;;;;;;;6.55;3.67;;;;;;;18.66;53.73;99931.22;4483270;31;33445;-83
2023/09/05 03:53:22;;;;;;;6.90;3.25;;;;;;;18.50;53.90;99926.97;4482471;32;34599;-91
2023/09/05 03:55:51;;;;;;;5.82;3.42;;;;;;;18.39;53.44;99934.03;4483125;31;34816;-92
2023/09/05 03:58:20;;;;;;;5.43;3.05;;;;;;;18.55;53.16;99929.56;4483147;32;33564;-91
2023/09/05 04:00:47;;;;;;;6.18;3.20;;;;;;;18.60;53.12;99938.25;4488635;31;32667;-91
2023/09/05 04:03:15;;;;;;;6.78;3.60;;;;;;;18.40;53.46;99936.66;4487964;31;35003;-84
2023/09/05 04:05:43;;;;;;;6.30;3.37;;;;;;;18.35;53.56;99941.06;4482796;31;34159;-81
2023/09/05 04:08:11;;;;;;;6.32;3.20;;;;;;;18.56;54.27;99929.56;4495899;31;33751;-84
2023/09/05 04:10:38;;;;;;;5.93;3.37;;;;;;;18.57;54.66;99933.06;4496611;31;33173;-84
2023/09/05 04:13:06;;;;;;;5.45;3.15;;;;;;;18.35;54.42;99940.19;4487526;31;34788;-82
2023/09/05 04:15:33;;;;;;;5.65;3.33;;;;;;;18.38;54.22;99942.81;4488942;31;34042;-83
2023/09/05 04:18:01;;;;;;;5.57;3.20;;;;;;;18.47;54.44;99950.63;4482297;31;33843;-91
2023/09/05 04:20:31;;;;;;;5.97;3.53;;;;;;;18.42;54.54;99950.66;4485657;31;34299;-83
2023/09/05 04:22:58;;;;;;;4.78;2.97;;;;;;;18.20;55.43;99955.16;4483574;31;34050;-92
2023/09/05 04:25:27;;;;;;;5.70;3.40;;;;;;;18.13;53.99;99942.94;4486470;31;34975;-83
2023/09/05 04:27:54;;;;;;;7.95;3.47;;;;;;;18.34;53.67;99944.59;4494914;31;33677;-81
2023/09/05 04:30:22;;;;;;;6.60;3.58;;;;;;;18.42;54.49;99939.28;4495407;31;33560;-88
2023/09/05 04:32:50;;;;;;;5.60;3.20;;;;;;;18.55;54.39;99942.69;4482071;32;34514;-83
2023/09/05 04:35:17;;;;;;;5.57;3.42;;;;;;;18.39;54.24;99945.41;4480768;32;33432;-90
2023/09/05 04:37:45;;;;;;;6.50;3.30;;;;;;;18.17;54.71;99943.81;4481815;32;34430;-87
2023/09/05 04:40:13;;;;;;;7.03;3.58;;;;;;;18.38;55.63;99956.81;4481904;32;34243;-92
2023/09/05 04:42:41;;;;;;;6.75;3.05;;;;;;;18.50;54.81;99955.84;4486933;31;34023;-93
2023/09/05 04:45:09;;;;;;;6.57;3.53;;;;;;;18.93;54.07;99958.16;4481235;31;34958;-82
2023/09/05 04:47:40;;;;;;;4.35;2.67;;;;;;;19.47;52.25;99952.38;4487946;31;33385;-83
2023/09/05 04:50:10;;;;;;;5.68;3.08;;;;;;;19.56;51.10;99954.94;4494522;31;33237;-83
2023/09/05 04:52:38;;;;;;;5.65;2.87;;;;;;;20.03;49.33;99956.13;4480822;31;33790;-87
2023/09/05 04:55:06;;;;;;;5.47;2.87;;;;;;;20.55;48.71;99952.81;4482089;31;34955;-82
2023/09/05 04:57:33;;;;;;;6.15;2.85;;;;;;;20.21;49.04;99955.87;4492594;31;33938;-84
2023/09/05 05:00:01;;;;;;;4.80;2.80;;;;;;;20.97;48.24;99945.09;4495497;31;34352;-82
2023/09/05 05:02:33;;;;;;;6.85;3.42;;;;;;;20.96;47.18;99951.25;4493784;31;34000;-84
2023/09/05 05:05:00;;;;;;;4.75;2.75;;;;;;;21.22;45.81;99954.31;4497194;31;34008;-82
2023/09/05 05:07:28;;;;;;;6.45;2.80;;;;;;;21.33;45.72;99960.28;4497440;31;33989;-83
2023/09/05 05:09:56;;;;;;;5.28;2.80;;;;;;;21.32;46.13;99955.87;4496176;31;34083;-83
2023/09/05 05:12:24;;;;;;;6.62;2.92;;;;;;;21.54;45.54;99958.13;4476930;32;33278;-83
2023/09/05 05:14:52;;;;;;;4.10;2.25;;;;;;;21.80;45.93;99965.53;4482264;31;35095;-84
2023/09/05 05:17:19;;;;;;;5.37;2.97;;;;;;;21.96;45.00;99963.44;4494653;31;33318;-84
2023/09/05 05:19:47;;;;;;;7.28;3.20;;;;;;;21.47;45.13;99960.03;4481981;31;33130;-83
2023/09/05 05:22:14;;;;;;;5.12;2.67;;;;;;;21.60;45.21;99960.66;4482883;31;33880;-86
2023/09/05 05:24:42;;;;;;;6.55;3.12;;;;;;;22.02;45.52;99964.19;4482558;31;34094;-84
2023/09/05 05:27:09;;;;;;;5.93;3.08;;;;;;;22.14;44.65;99962.22;4493335;31;34791;-85
2023/09/05 05:29:37;;;;;;;7.40;3.40;;;;;;;22.10;45.34;99956.13;4483916;32;34251;-87
2023/09/05 05:32:04;;;;;;;6.18;2.47;;;;;;;21.67;44.47;99967.56;4483819;31;34861;-85
2023/09/05 05:34:32;;;;;;;6.03;3.15;;;;;;;22.41;44.03;99960.75;4483688;32;33735;-83
2023/09/05 05:37:01;;;;;;;7.28;3.33;;;;;;;22.79;44.07;99959.81;4483879;32;34711;-83
2023/09/05 05:39:29;;;;;;;4.72;2.47;;;;;;;22.64;44.73;99949.63;4483896;32;33260;-84
2023/09/05 05:41:56;;;;;;;5.78;2.90;;;;;;;22.74;43.08;99954.66;4479093;31;33299;-85
2023/09/05 05:44:24;;;;;;;5.07;3.05;;;;;;;22.87;43.13;99957.84;4496690;31;35082;-82
2023/09/05 05:46:57;;;;;;;5.30;2.70;;;;;;;22.58;42.61;99958.59;4499273;31;33713;-83
2023/09/05 05:49:28;;;;;;;5.82;3.17;;;;;;;22.70;43.84;99957.41;4499320;31;34096;-85
2023/09/05 05:51:57;;;;;;;8.02;2.85;;;;;;;22.85;42.18;99970.25;4498234;31;34260;-84
2023/09/05 05:54:25;;;;;;;5.50;2.62;;;;;;;22.23;44.44;99964.66;4499287;31;34029;-85
2023/09/05 05:56:55;;;;;;;6.37;3.05;;;;;;;22.57;44.25;99967.41;4499568;31;33998;-86
2023/09/05 05:59:23;;;;;;;5.97;2.78;;;;;;;22.62;43.50;99956.75;4498160;31;33474;-84
2023/09/05 06:01:52;;;;;;;5.80;2.78;;;;;;;22.74;43.82;99967.00;4499277;31;34011;-86
2023/09/05 06:04:20;;;;;;;4.85;2.83;;;;;;;22.69;44.63;99963.59;4499392;31;34778;-85
2023/09/05 06:06:49;;;;;;;6.07;2.70;;;;;;;22.90;42.79;99959.56;4491860;31;33994;-84
2023/09/05 06:09:18;;;;;;;4.93;2.75;;;;;;;22.42;44.39;99959.81;4497188;31;33006;-86
2023/09/05 06:11:46;;;;;;;6.22;2.70;;;;;;;21.86;45.79;99954.87;4494774;31;33640;-86
2023/09/05 06:14:14;;;;;;;5.40;2.65;;;;;;;22.08;45.23;99960.53;4482150;32;34136;-85
2023/09/05 06:16:46;;;;;;;5.82;2.83;;;;;;;22.13;45.64;99950.78;4483318;32;34333;-84
2023/09/05 06:19:15;;;;;;;7.05;2.92;;;;;;;22.06;44.29;99951.81;4483382;32;33240;-85
2023/09/05 06:21:46;;;;;;;4.95;2.80;;;;;;;21.80;45.52;99966.41;4482017;32;34549;-84
2023/09/05 06:24:14;;;;;;;6.25;2.65;;;;;;;21.92;45.16;99959.12;4469839;32;33629;-87
2023/09/05 06:26:44;;;;;;;6.62;3.17;;;;;;;21.64;45.95;99958.84;4486386;31;33907;-82
2023/09/05 06:29:12;;;;;;;6.07;2.90;;;;;;;21.66;46.65;99962.31;4495817;31;34063;-83
2023/09/05 06:31:40;;;;;;;5.18;2.97;;;;;;;21.60;44.75;99968.59;4496338;31;33915;-86
2023/09/05 06:34:08;;;;;;;5.57;3.33;;;;;;;21.68;45.58;99957.88;4483205;32;34955;-86
2023/09/05 06:36:35;;;;;;;7.28;3.62;;;;;;;21.93;45.40;99964.38;4481920;32;34823;-82
2023/09/05 06:39:07;;;;;;;6.87;3.05;;;;;;;22.20;44.85;99968.25;4469676;32;31849;-83
2023/09/05 06:41:35;;;;;;;7.82;3.17;;;;;;;22.19;44.70;99965.63;4482899;32;34076;-85
2023/09/05 06:44:03;;;;;;;8.15;3.45;;;;;;;21.80;46.13;99969.06;4486533;31;35056;-84
2023/09/05 06:46:35;;;;;;;6.65;3.20;;;;;;;21.62;45.88;99974.69;4498826;31;34655;-84
2023/09/05 06:49:03;;;;;;;7.12;3.65;;;;;;;21.66;46.52;99964.94;4498106;31;33399;-83
2023/09/05 06:51:30;;;;;;;5.80;3.30;;;;;;;21.64;46.85;99972.91;4498811;31;34294;-83
2023/09/05 06:54:00;;;;;;;7.47;3.42;;;;;;;21.52;46.99;99968.72;4498602;31;34968;-85
2023/09/05 06:56:28;;;;;;;6.75;3.00;;;;;;;21.69;46.89;99968.38;4497445;31;34717;-87
2023/09/05 06:58:56;;;;;;;6.68;2.72;;;;;;;22.27;45.65;99959.25;4491060;31;33418;-83
2023/09/05 07:01:28;;;;;;;6.75;3.00;;;;;;;22.04;45.67;99967.66;4496955;31;33929;-84
2023/09/05 07:03:56;;;;;;;7.18;3.08;;;;;;;21.73;44.95;99967.44;4494904;31;35356;-83
2023/09/05 07:06:23;;;;;;;8.48;3.60;;;;;;;21.50;46.42;99970.53;4483100;32;34061;-84
2023/09/05 07:08:51;;;;;;;6.60;3.47;;;;;;;21.74;44.92;99963.87;4481815;32;33555;-84
2023/09/05 07:11:19;;;;;;;5.68;2.60;;;;;;;21.78;45.67;99965.59;4483026;32;35096;-84
2023/09/05 07:13:47;;;;;;;6.87;2.97;;;;;;;22.14;45.40;99963.09;4483217;32;34909;-83
2023/09/05 07:16:14;;;;;;;6.20;3.17;;;;;;;22.16;45.58;99977.16;4487544;31;34667;-83
2023/09/05 07:18:42;;;;;;;8.93;3.40;;;;;;;22.24;44.41;99975.22;4495014;31;33410;-82
2023/09/05 07:21:09;;;;;;;6.07;3.33;;;;;;;22.37;44.07;99981.06;4497028;31;33916;-82
2023/09/05 07:23:37;;;;;;;7.05;3.17;;;;;;;22.30;43.67;99975.06;4492289;31;34964;-84
2023/09/05 07:26:05;;;;;;;6.32;2.80;;;;;;;22.62;44.11;99968.19;4468892;32;33618;-83
2023/09/05 07:28:34;;;;;;;6.15;3.00;;;;;;;22.73;44.09;99974.09;4491746;31;32936;-83
2023/09/05 07:31:01;;;;;;;7.57;3.42;;;;;;;22.95;42.48;99976.22;4497125;31;33877;-84
2023/09/05 07:33:29;;;;;;;11.98;3.28;;;;;;;23.04;42.75;99973.34;4484431;31;34077;-83
2023/09/05 07:35:57;;;;;;;5.12;2.78;;;;;;;23.05;43.69;99973.28;4490276;31;33830;-83
2023/09/05 07:38:28;;;;;;;6.50;2.90;;;;;;;22.83;42.95;99970.28;4483181;32;32768;-83
2023/09/05 07:41:05;;;;;;;7.57;3.00;;;;;;;23.22;43.35;99977.28;4493845;31;34454;-83
2023/09/05 07:43:34;;;;;;;8.45;3.75;;;;;;;23.20;42.31;99969.41;4495987;31;34234;-84
2023/09/05 07:46:03;;;;;;;8.52;2.92;;;;;;;23.45;43.01;99979.31;4491077;31;33858;-85
2023/09/05 07:48:30;;;;;;;6.43;3.00;;;;;;;23.42;42.40;99979.41;4491958;31;34382;-86
2023/09/05 07:51:03;;;;;;;5.18;2.80;;;;;;;23.58;41.92;99980.72;4498449;31;35172;-87
2023/09/05 07:53:35;;;;;;;5.40;3.03;;;;;;;23.94;41.79;99984.16;4481657;32;35372;-88
2023/09/05 07:56:03;;;;;;;6.95;3.25;;;;;;;23.56;41.65;99979.88;4488329;31;34117;-82
2023/09/05 07:58:32;;;;;;;5.65;3.37;;;;;;;23.51;42.03;99984.44;4498268;31;34536;-82
2023/09/05 08:00:59;;;;;;;7.70;2.95;;;;;;;24.10;41.52;99989.88;4498122;31;35083;-84
2023/09/05 08:03:28;;;;;;;6.28;2.87;;;;;;;24.06;40.89;99988.22;4496689;31;34184;-83
2023/09/05 08:05:55;;;;;;;7.37;3.37;;;;;;;24.24;41.49;99993.00;4481197;32;33982;-84
2023/09/05 08:08:23;;;;;;;7.62;3.03;;;;;;;24.55;40.25;99991.19;4481358;32;33698;-82
2023/09/05 08:10:51;;;;;;;6.15;3.45;;;;;;;24.57;40.49;99979.63;4489186;31;33495;-84
2023/09/05 08:13:19;;;;;;;8.05;3.22;;;;;;;24.30;40.05;99983.09;4498220;31;35130;-83
2023/09/05 08:15:47;;;;;;;7.32;3.22;;;;;;;24.30;40.13;99985.75;4488516;31;34908;-83
2023/09/05 08:18:15;;;;;;;8.00;3.50;;;;;;;23.90;40.39;99987.78;4496552;31;33544;-84
2023/09/05 08:20:46;;;;;;;5.95;3.00;;;;;;;24.07;41.23;99989.97;4494326;31;33966;-85
2023/09/05 08:23:13;;;;;;;6.30;3.03;;;;;;;23.92;40.93;99985.97;4482416;32;34512;-82
2023/09/05 08:25:41;;;;;;;7.47;4.07;;;;;;;24.09;41.45;99988.13;4482484;32;33982;-85
2023/09/05 08:28:09;;;;;;;8.73;3.33;;;;;;;24.27;39.87;99973.47;4480768;32;33357;-85
2023/09/05 08:30:36;;;;;;;5.95;2.70;;;;;;;24.39;41.58;99980.19;4481123;32;34747;-84
2023/09/05 08:33:05;;;;;;;5.20;2.97;;;;;;;24.52;40.65;99976.25;4487577;31;33714;-85
2023/09/05 08:35:33;;;;;;;5.45;2.85;;;;;;;24.52;40.11;99974.47;4498250;31;33663;-85
2023/09/05 08:38:04;;;;;;;5.18;2.72;;;;;;;24.50;41.63;99968.34;4496683;31;32560;-84
2023/09/05 08:40:35;;;;;;;6.15;3.40;;;;;;;24.58;41.08;99981.34;4497900;31;33726;-84
2023/09/05 08:43:03;;;;;;;7.30;3.20;;;;;;;24.61;39.17;99969.78;4496391;31;34588;-84
2023/09/05 08:45:31;;;;;;;7.43;3.30;;;;;;;24.85;40.04;99958.41;4497799;31;33769;-85
2023/09/05 08:47:58;;;;;;;8.32;3.12;;;;;;;24.74;40.76;99963.19;4497594;31;34382;-84
2023/09/05 08:50:29;;;;;;;7.20;3.03;;;;;;;24.58;40.62;99968.09;4496626;31;35104;-82
2023/09/05 08:52:58;;;;;;;6.25;3.10;;;;;;;24.71;39.62;99960.63;4496132;31;34129;-83
2023/09/05 08:55:26;;;;;;;8.32;2.90;;;;;;;24.53;41.16;99956.78;4498295;31;34633;-83
2023/09/05 08:57:55;;;;;;;7.25;3.05;;;;;;;24.67;40.08;99959.88;4499606;31;33523;-82
2023/09/05 09:00:24;;;;;;;6.20;2.72;;;;;;;24.98;40.35;99958.84;4500041;31;34529;-83
2023/09/05 09:02:53;;;;;;;5.07;3.10;;;;;;;24.97;37.88;99967.75;4499616;31;34824;-84
2023/09/05 09:05:21;;;;;;;6.70;3.08;;;;;;;25.01;39.99;99958.75;4499807;31;33742;-84
2023/09/05 09:07:48;;;;;;;4.90;2.85;;;;;;;25.16;38.86;99952.97;4499612;31;33685;-82
2023/09/05 09:10:18;;;;;;;9.52;3.28;;;;;;;25.06;38.59;99954.16;4490068;31;33820;-84
2023/09/05 09:12:45;;;;;;;6.90;3.22;;;;;;;25.31;37.31;99948.91;4485983;31;34111;-83
2023/09/05 09:15:14;;;;;;;8.68;2.92;;;;;;;25.21;38.16;99940.37;4493482;31;33520;-87
2023/09/05 09:17:45;;;;;;;5.93;2.92;;;;;;;25.02;39.00;99939.25;4499632;31;33143;-83
2023/09/05 09:20:13;;;;;;;4.97;2.65;;;;;;;25.05;38.98;99933.00;4485202;31;33403;-83
2023/09/05 09:22:42;;;;;;;7.82;3.08;;;;;;;25.12;38.63;99930.09;4499397;31;35036;-85
2023/09/05 09:25:23;;;;;;;4.97;2.50;;;;;;;24.97;39.20;99934.13;4499634;31;34081;-83
2023/09/05 09:27:54;;;;;;;7.15;3.22;;;;;;;24.92;39.72;99938.69;4499120;31;34220;-82
2023/09/05 09:30:27;;;;;;;7.50;3.15;;;;;;;25.11;38.11;99932.78;4499676;31;33855;-82
2023/09/05 09:32:55;;;;;;;5.57;3.33;;;;;;;25.08;39.26;99931.09;4483807;32;35252;-81
2023/09/05 09:35:26;;;;;;;7.50;3.20;;;;;;;25.17;39.42;99919.31;4483512;32;34075;-81
2023/09/05 09:37:55;;;;;;;6.75;3.03;;;;;;;25.07;37.60;99926.69;4483794;32;34410;-83
2023/09/05 09:40:23;;;;;;;12.57;3.58;;;;;;;25.15;39.16;99908.75;4495278;31;34126;-84
2023/09/05 09:42:50;;;;;;;6.22;2.95;;;;;;;25.55;38.58;99925.03;4483491;32;35024;-83
2023/09/05 09:45:18;;;;;;;6.43;2.85;;;;;;;25.76;38.96;99926.03;4483257;32;34682;-83
2023/09/05 09:47:52;;;;;;;7.40;3.37;;;;;;;25.64;36.11;99920.25;4495097;31;33571;-82
2023/09/05 09:50:20;;;;;;;4.20;2.33;;;;;;;25.71;36.42;99912.91;4495057;31;35446;-83
2023/09/05 09:52:53;;;;;;;6.10;2.60;;;;;;;25.82;36.14;99910.75;4482544;32;34192;-83
2023/09/05 09:55:25;;;;;;;12.23;3.33;;;;;;;25.85;37.00;99925.72;4481960;32;34613;-83
2023/09/05 09:58:00;;;;;;;4.82;2.62;;;;;;;26.01;35.25;99913.56;4482352;32;34008;-83
2023/09/05 10:00:32;;;;;;;6.93;2.67;;;;;;;25.62;37.51;99919.44;4482092;32;33914;-83
2023/09/05 10:03:04;;;;;;;7.43;2.53;;;;;;;25.89;37.00;99917.56;4494891;31;33677;-83
2023/09/05 10:05:32;;;;;;;4.57;2.55;;;;;;;25.98;37.03;99916.34;4483491;32;33983;-82
2023/09/05 10:07:59;;;;;;;6.60;2.58;;;;;;;26.16;37.86;99917.44;4482761;31;34306;-85
2023/09/05 10:10:27;;;;;;;5.18;2.55;;;;;;;25.99;37.32;99911.91;4483369;32;33810;-83
2023/09/05 10:12:56;;;;;;;5.45;2.55;;;;;;;26.31;36.13;99900.00;4491247;31;33834;-84
2023/09/05 10:15:25;;;;;;;5.22;2.60;;;;;;;26.28;38.08;99905.44;4493143;31;34023;-83
2023/09/05 10:17:53;;;;;;;5.70;3.20;;;;;;;26.52;36.47;99901.84;4497107;31;33851;-83
2023/09/05 10:20:21;;;;;;;6.32;2.62;;;;;;;25.62;37.46;99908.81;4482100;32;34863;-83
2023/09/05 10:22:53;;;;;;;6.35;2.92;;;;;;;25.62;38.56;99910.63;4482216;32;34768;-82
2023/09/05 10:25:22;;;;;;;5.20;2.85;;;;;;;25.52;37.64;99902.13;4484725;31;34386;-84
2023/09/05 10:27:49;;;;;;;7.10;2.70;;;;;;;26.05;37.98;99893.06;4495251;31;33250;-83
2023/09/05 10:30:19;;;;;;;9.13;2.90;;;;;;;25.72;37.87;99893.41;4497841;31;33982;-90
2023/09/05 10:32:49;;;;;;;7.65;2.75;;;;;;;25.92;38.49;99895.34;4499332;31;34046;-82
2023/09/05 10:35:18;;;;;;;7.50;2.60;;;;;;;26.13;38.46;99894.50;4497606;31;33610;-83
2023/09/05 10:37:55;;;;;;;4.85;2.70;;;;;;;26.38;37.35;99880.22;4497759;31;34447;-82
2023/09/05 10:40:39;;;;;;;7.70;3.20;;;;;;;26.26;36.74;99873.63;4499077;31;33858;-83
2023/09/05 10:43:09;;;;;;;4.85;2.47;;;;;;;26.80;36.33;99884.72;4498961;31;34295;-82
2023/09/05 10:45:37;;;;;;;6.78;2.58;;;;;;;26.46;36.24;99878.16;4497946;31;33885;-82
2023/09/05 10:48:11;;;;;;;5.50;2.90;;;;;;;26.45;37.62;99873.75;4498768;31;33296;-82
2023/09/05 10:51:06;;;;;;;5.73;2.70;;;;;;;26.46;36.03;99871.97;4491766;31;33801;-84
2023/09/05 10:53:35;;;;;;;5.20;2.42;;;;;;;26.62;37.09;99871.25;4481889;32;33441;-84
2023/09/05 10:56:03;;;;;;;4.87;2.25;;;;;;;26.83;35.81;99871.28;4481873;32;33847;-84
2023/09/05 10:58:53;;;;;;;6.70;3.37;;;;;;;26.87;36.36;99859.59;4481975;32;33205;-85
2023/09/05 11:01:29;;;;;;;5.53;2.28;;;;;;;26.74;35.90;99858.38;4487318;31;33678;-82
2023/09/05 11:04:03;;;;;;;6.93;2.90;;;;;;;26.60;36.24;99866.94;4499187;31;34845;-84
2023/09/05 11:06:31;;;;;;;7.10;2.65;;;;;;;26.77;35.37;99868.88;4497701;31;33690;-84
2023/09/05 11:09:04;;;;;;;6.53;2.60;;;;;;;26.58;34.22;99867.00;4497682;31;33321;-83
2023/09/05 11:11:37;;;;;;;7.10;2.83;;;;;;;26.57;34.73;99857.28;4493893;31;33903;-83
2023/09/05 11:14:06;;;;;;;4.65;2.17;;;;;;;26.58;35.90;99853.69;4496382;31;34046;-82
2023/09/05 11:16:49;;;;;;;5.18;2.40;;;;;;;26.71;35.04;99864.72;4496098;31;33707;-83
2023/09/05 11:19:32;;;;;;;4.53;2.28;;;;;;;26.90;33.62;99856.81;4484844;31;33398;-82
2023/09/05 11:22:18;;;;;;;4.85;2.00;;;;;;;27.02;36.16;99855.41;4483628;31;34821;-83
2023/09/05 11:24:48;;;;;;;5.72;2.50;;;;;;;26.84;35.64;99857.06;4482671;32;33994;-84
2023/09/05 11:27:25;;;;;;;4.90;2.35;;;;;;;26.34;36.98;99852.91;4481693;32;34070;-83
2023/09/05 11:29:55;;;;;;;6.70;2.40;;;;;;;26.69;35.04;99862.09;4492324;31;33300;-83
2023/09/05 11:32:32;;;;;;;4.00;2.10;;;;;;;26.77;37.12;99860.91;4497486;31;33741;-83
2023/09/05 11:35:03;;;;;;;6.32;2.50;;;;;;;27.01;36.07;99857.19;4497407;31;35047;-83
2023/09/05 11:37:31;;;;;;;6.15;2.37;;;;;;;27.14;34.63;99852.22;4497159;31;34743;-83
2023/09/05 11:40:17;;;;;;;4.97;2.28;;;;;;;27.21;34.56;99847.50;4484564;31;34710;-83
2023/09/05 11:42:45;;;;;;;4.57;2.17;;;;;;;27.03;36.24;99850.00;4497207;31;34866;-85